Avord (BA 702) Air Base

Airport
ICAO code: 
LFOA
Summary
ICAO Region: 
EUR
Territory: 
Location: 
, Centre
Serving: 
Avord
Elevation: 
580 ft
Coordinates: 
Aerial View: 
47° 3' 11.999" N, 2° 37' 57" E
Metar
Observation
LFOA 302130Z AUTO 22012KT 9999 BKN013 BKN022 OVC040 06/04 Q1019 TEMPO 4000 -RADZ BKN009
Station
Avord
Date/Time
2021-11-30 21:30:00
Wind direction
220°
Wind speed
12 kts
Lowest cloud amount
broken clouds
Temperature
6°C
Dew point
4°C
Humidity
86%
QNH
1019 hPa
Weather condition
n/a

Runways

Designator Length Width Surface Rops
6/24 3503 45 ASP No/No
Airport map: 
Aerial View: 

SKYbrary Partners:

Safety knowledge contributed by: